createdAt,value
2022-10-11T00:00:10.111Z,85.38
2022-10-11T00:02:36.668Z,85.33
2022-10-11T00:05:03.676Z,84.58
2022-10-11T00:07:30.418Z,84.64
2022-10-11T00:09:57.036Z,84.78
2022-10-11T00:12:23.572Z,85.17
2022-10-11T00:14:50.225Z,85.38
2022-10-11T00:17:16.796Z,85.23
2022-10-11T00:19:43.347Z,85.59
2022-10-11T00:22:10.053Z,85.80
2022-10-11T00:24:36.650Z,86.27
2022-10-11T00:33:08.873Z,86.52
2022-10-11T00:35:35.966Z,86.34
2022-10-11T00:38:02.967Z,86.89
2022-10-11T00:40:29.962Z,86.73
2022-10-11T00:42:56.858Z,86.65
2022-10-11T00:45:26.674Z,87.20
2022-10-11T00:48:00.674Z,86.52
2022-10-11T00:50:31.544Z,86.06
2022-10-11T00:53:03.482Z,86.86
2022-10-11T00:55:36.731Z,87.05
2022-10-11T00:58:03.613Z,86.62
2022-10-11T01:00:30.232Z,87.55
2022-10-11T01:02:57.083Z,86.86
2022-10-11T01:05:29.617Z,86.45
2022-10-11T01:07:59.098Z,86.34
2022-10-11T01:10:26.710Z,86.09
2022-10-11T01:13:25.508Z,85.87
2022-10-11T01:16:07.971Z,85.56
2022-10-11T01:18:44.273Z,86.46
2022-10-11T01:21:10.914Z,85.97
2022-10-11T01:23:46.397Z,85.94
2022-10-11T01:26:41.462Z,86.01
2022-10-11T01:29:26.427Z,87.20
2022-10-11T01:32:03.816Z,86.12
2022-10-11T01:34:52.986Z,85.66
2022-10-11T01:37:28.319Z,86.32
2022-10-11T01:40:02.522Z,85.61
2022-10-11T01:42:30.227Z,84.93
2022-10-11T01:44:58.821Z,84.60
2022-10-11T01:47:26.193Z,83.76
2022-10-11T01:49:57.150Z,85.17
2022-10-11T01:52:26.605Z,85.17
2022-10-11T01:55:09.891Z,85.64
2022-10-11T01:57:42.882Z,85.13
2022-10-11T02:00:22.795Z,85.89
2022-10-11T02:03:19.491Z,84.88
2022-10-11T02:06:01.135Z,84.99
2022-10-11T02:08:53.110Z,85.30
2022-10-11T02:11:27.635Z,85.57
2022-10-11T02:14:03.483Z,84.25
2022-10-11T02:17:04.020Z,84.76
2022-10-11T02:19:36.754Z,83.46
2022-10-11T02:22:08.411Z,83.08
2022-10-11T02:24:38.151Z,83.02
2022-10-11T02:27:06.112Z,83.08
2022-10-11T02:29:37.819Z,82.77
2022-10-11T02:32:05.967Z,83.42
2022-10-11T02:34:40.102Z,83.45
2022-10-11T02:37:21.561Z,84.46
2022-10-11T02:40:02.520Z,84.05
2022-10-11T02:42:37.117Z,83.98
2022-10-11T02:45:12.099Z,83.25
2022-10-11T02:47:40.813Z,82.78
2022-10-11T02:50:07.833Z,82.95
2022-10-11T02:52:34.391Z,83.04
2022-10-11T02:55:00.939Z,83.69
2022-10-11T02:57:27.471Z,83.40
2022-10-11T02:59:54.063Z,83.47
2022-10-11T03:02:20.735Z,83.74
2022-10-11T03:04:47.540Z,83.87
2022-10-11T03:07:14.745Z,83.55
2022-10-11T03:09:41.376Z,83.95
2022-10-11T03:12:08.263Z,83.99
2022-10-11T03:14:34.799Z,83.60
2022-10-11T03:17:23.851Z,84.03
2022-10-11T03:19:48.325Z,83.32
2022-10-11T03:22:14.897Z,83.49
2022-10-11T03:24:41.488Z,83.40
2022-10-11T03:27:08.049Z,84.00
2022-10-11T03:29:34.599Z,83.19
2022-10-11T03:32:01.239Z,82.70
2022-10-11T03:34:27.877Z,82.66
2022-10-11T03:36:54.510Z,81.98
2022-10-11T03:39:22.705Z,81.90
2022-10-11T03:41:49.365Z,81.78
2022-10-11T03:44:16.005Z,82.38
2022-10-11T03:46:42.602Z,82.51
2022-10-11T03:49:09.225Z,82.37
2022-10-11T03:51:36.418Z,82.25
2022-10-11T03:54:03.100Z,82.24
2022-10-11T03:56:29.636Z,83.53
2022-10-11T03:58:56.278Z,83.30
2022-10-11T04:01:22.893Z,84.12
2022-10-11T04:03:49.539Z,83.22
2022-10-11T04:06:16.189Z,83.80
2022-10-11T04:08:42.793Z,82.59
2022-10-11T04:11:09.420Z,83.56
2022-10-11T04:13:36.434Z,83.73
2022-10-11T04:16:03.461Z,83.30
2022-10-11T04:18:30.365Z,84.16
2022-10-11T04:20:56.961Z,83.99
2022-10-11T04:23:23.667Z,84.07
2022-10-11T04:25:50.333Z,83.90
2022-10-11T04:28:16.919Z,84.28
2022-10-11T04:30:43.825Z,84.43
2022-10-11T04:33:11.517Z,85.30
2022-10-11T04:35:38.385Z,84.77
2022-10-11T04:38:05.000Z,84.98
2022-10-11T04:40:32.550Z,85.05
2022-10-11T04:42:59.111Z,86.54
2022-10-11T04:45:26.297Z,84.23
2022-10-11T04:47:52.891Z,84.23
2022-10-11T04:50:19.557Z,82.79
2022-10-11T04:52:46.813Z,82.49
2022-10-11T04:55:14.178Z,83.32
2022-10-11T04:57:40.768Z,82.21
2022-10-11T05:00:07.986Z,81.60
2022-10-11T05:02:34.627Z,81.13
2022-10-11T05:05:01.262Z,81.22
2022-10-11T05:07:27.844Z,83.42
2022-10-11T05:09:54.602Z,84.28
2022-10-11T05:12:21.158Z,82.83
2022-10-11T05:14:47.761Z,82.91
2022-10-11T05:17:14.381Z,82.70
2022-10-11T05:19:41.043Z,84.85
2022-10-11T05:22:07.638Z,83.10
2022-10-11T05:24:34.302Z,83.74
2022-10-11T05:27:03.323Z,83.66
2022-10-11T05:29:30.259Z,83.92
2022-10-11T05:31:56.905Z,84.51
2022-10-11T05:34:23.406Z,85.18
2022-10-11T05:36:50.065Z,85.39
2022-10-11T05:39:16.601Z,85.82
2022-10-11T05:41:43.280Z,85.79
2022-10-11T05:44:09.870Z,85.51
2022-10-11T05:46:36.524Z,84.60
2022-10-11T05:49:03.219Z,84.84
2022-10-11T05:51:29.848Z,84.55
2022-10-11T05:53:56.454Z,85.28
2022-10-11T05:56:24.994Z,84.44
2022-10-11T05:58:52.281Z,84.77
2022-10-11T06:01:23.138Z,84.79
2022-10-11T06:03:50.717Z,84.32
2022-10-11T06:06:17.964Z,82.95
2022-10-11T06:08:45.453Z,84.35
2022-10-11T06:11:13.319Z,83.30
2022-10-11T06:13:40.855Z,82.84
2022-10-11T06:16:08.234Z,84.09
2022-10-11T06:18:35.001Z,84.43
2022-10-11T06:21:01.826Z,83.15
2022-10-11T06:23:28.546Z,83.18
2022-10-11T06:26:11.437Z,82.71
2022-10-11T06:28:58.949Z,83.46
2022-10-11T06:31:25.806Z,82.63
2022-10-11T06:33:52.444Z,83.09
2022-10-11T06:36:19.173Z,83.56
2022-10-11T06:38:45.850Z,83.30
2022-10-11T06:41:21.095Z,81.86
2022-10-11T06:43:49.894Z,81.61
2022-10-11T06:46:17.863Z,82.27
2022-10-11T06:48:45.897Z,82.51
2022-10-11T06:51:14.456Z,81.96
2022-10-11T06:53:41.258Z,83.33
2022-10-11T06:56:11.415Z,82.71
2022-10-11T06:58:39.303Z,80.94
2022-10-11T07:01:10.409Z,80.53
2022-10-11T07:03:37.538Z,82.02
2022-10-11T07:06:10.617Z,80.57
2022-10-11T07:08:38.252Z,81.07
2022-10-11T07:11:17.891Z,80.56
2022-10-11T07:13:49.864Z,80.82
2022-10-11T07:16:16.925Z,80.88
2022-10-11T07:18:43.570Z,81.43
2022-10-11T07:21:15.674Z,80.44
2022-10-11T07:23:42.700Z,81.88
2022-10-11T07:26:10.979Z,81.09
2022-10-11T07:28:38.549Z,80.30
2022-10-11T07:31:26.930Z,78.71
2022-10-11T07:33:53.809Z,79.24
2022-10-11T07:36:20.650Z,79.08
2022-10-11T07:38:50.345Z,79.61
2022-10-11T07:41:17.452Z,78.26
2022-10-11T07:43:46.910Z,79.42
2022-10-11T07:46:14.217Z,80.37
2022-10-11T07:48:40.925Z,79.69
2022-10-11T07:51:11.623Z,79.92
2022-10-11T07:53:42.959Z,78.49
2022-10-11T07:56:14.895Z,77.63
2022-10-11T07:58:42.588Z,76.86
2022-10-11T08:01:10.619Z,77.87
2022-10-11T08:03:38.082Z,77.37
2022-10-11T08:06:07.698Z,75.67
2022-10-11T08:08:35.556Z,78.35
2022-10-11T08:11:02.266Z,76.20
2022-10-11T08:13:29.054Z,76.61
2022-10-11T08:15:55.633Z,75.84
2022-10-11T08:18:22.403Z,76.18
2022-10-11T08:20:48.963Z,75.40
2022-10-11T08:23:16.856Z,75.56
2022-10-11T08:25:47.508Z,76.24
2022-10-11T08:28:18.533Z,74.92
2022-10-11T08:30:54.267Z,74.37
2022-10-11T08:33:23.015Z,75.97
2022-10-11T08:35:50.475Z,75.20
2022-10-11T08:38:18.002Z,74.43
2022-10-11T08:40:49.596Z,76.56
2022-10-11T08:43:28.366Z,75.81
2022-10-11T08:45:58.554Z,74.00
2022-10-11T08:48:41.989Z,73.60
2022-10-11T08:51:24.930Z,74.08
2022-10-11T08:54:12.567Z,73.17
2022-10-11T08:56:41.746Z,72.62
2022-10-11T08:59:11.229Z,72.70
2022-10-11T09:01:44.638Z,74.14
2022-10-11T09:04:14.745Z,73.46
2022-10-11T09:06:55.631Z,73.77
2022-10-11T09:09:48.850Z,72.61
2022-10-11T09:12:32.303Z,72.16
2022-10-11T09:15:03.169Z,72.68
2022-10-11T09:17:42.877Z,72.89
2022-10-11T09:20:18.169Z,72.82
2022-10-11T09:23:11.598Z,72.94
2022-10-11T09:25:49.392Z,72.03
2022-10-11T09:28:35.147Z,71.71
2022-10-11T09:31:01.954Z,71.91
2022-10-11T09:33:31.369Z,71.88
2022-10-11T09:35:58.608Z,71.90
2022-10-11T09:38:37.345Z,70.60
2022-10-11T09:41:15.029Z,71.81
2022-10-11T09:43:46.046Z,70.70
2022-10-11T09:46:30.865Z,69.54
2022-10-11T09:49:00.714Z,70.59
2022-10-11T09:51:28.120Z,69.44
2022-10-11T09:54:04.309Z,68.99
2022-10-11T09:56:33.673Z,69.12
2022-10-11T09:59:21.971Z,67.14
2022-10-11T10:01:49.044Z,67.56
2022-10-11T10:04:18.954Z,66.63
2022-10-11T10:06:45.678Z,65.85
2022-10-11T10:09:24.586Z,65.28
2022-10-11T10:11:51.685Z,64.87
2022-10-11T10:14:30.435Z,64.07
2022-10-11T10:17:06.554Z,63.82
2022-10-11T10:19:44.710Z,63.73
2022-10-11T10:22:21.210Z,65.23
2022-10-11T10:24:50.566Z,64.38
2022-10-11T10:27:21.605Z,63.54
2022-10-11T10:30:09.483Z,62.92
2022-10-11T10:32:57.872Z,62.99
2022-10-11T10:35:27.508Z,62.88
2022-10-11T10:38:01.011Z,63.00
2022-10-11T10:40:37.642Z,61.13
2022-10-11T10:43:04.354Z,61.28
2022-10-11T10:46:28.905Z,60.76
2022-10-11T10:52:03.159Z,62.00
2022-10-11T10:54:35.478Z,62.32
2022-10-11T10:57:11.313Z,60.30
2022-10-11T10:59:53.154Z,60.76
2022-10-11T11:02:40.645Z,60.33
2022-10-11T11:05:40.811Z,59.30
2022-10-11T11:08:16.593Z,58.68
2022-10-11T11:10:55.790Z,59.27
2022-10-11T11:13:41.404Z,59.03
2022-10-11T11:16:13.198Z,59.04
2022-10-11T11:19:03.816Z,60.04
2022-10-11T11:21:59.344Z,59.28
2022-10-11T11:24:28.553Z,58.95
2022-10-11T11:27:23.811Z,58.76
2022-10-11T11:30:03.456Z,58.39
2022-10-11T11:32:45.548Z,57.70
2022-10-11T11:35:43.939Z,58.45
2022-10-11T11:38:20.890Z,56.97
2022-10-11T11:40:58.488Z,56.69
2022-10-11T11:43:39.445Z,57.08
2022-10-11T11:46:16.001Z,56.57
2022-10-11T11:48:43.973Z,56.69
2022-10-11T11:51:26.490Z,55.98
2022-10-11T11:53:59.096Z,55.96
2022-10-11T11:56:44.542Z,56.65
2022-10-11T11:59:14.049Z,57.08
2022-10-11T12:01:48.025Z,56.17
2022-10-11T12:04:31.188Z,55.57
2022-10-11T12:07:18.567Z,56.20
2022-10-11T12:09:52.654Z,55.95
2022-10-11T12:12:37.377Z,55.22
2022-10-11T12:15:10.204Z,56.35
2022-10-11T12:17:54.779Z,55.65
2022-10-11T12:20:21.325Z,55.21
2022-10-11T12:22:53.860Z,56.27
2022-10-11T12:25:23.872Z,54.58
2022-10-11T12:27:56.589Z,53.80
2022-10-11T12:30:48.112Z,53.77
2022-10-11T12:33:22.764Z,53.14
2022-10-11T12:35:55.546Z,53.13
2022-10-11T12:38:39.987Z,51.86
2022-10-11T12:41:09.477Z,50.48
2022-10-11T12:44:15.019Z,48.93
2022-10-11T12:46:57.847Z,49.87
2022-10-11T12:49:36.850Z,47.67
2022-10-11T12:52:22.389Z,47.36
2022-10-11T12:55:01.088Z,48.62
2022-10-11T12:57:56.081Z,51.67
2022-10-11T13:00:30.833Z,52.11
2022-10-11T13:03:33.308Z,48.76
2022-10-11T13:06:09.995Z,49.00
2022-10-11T13:08:40.756Z,47.73
2022-10-11T13:11:17.490Z,46.83
2022-10-11T13:13:49.118Z,47.00
2022-10-11T13:16:21.425Z,46.38
2022-10-11T13:18:53.672Z,49.67
2022-10-11T13:21:27.175Z,53.40
2022-10-11T13:24:03.770Z,54.43
2022-10-11T13:26:31.717Z,56.02
2022-10-11T13:29:00.192Z,54.17
2022-10-11T13:31:27.797Z,55.43
2022-10-11T13:33:56.870Z,56.50
2022-10-11T13:36:26.924Z,56.77
2022-10-11T13:38:59.187Z,55.78
2022-10-11T13:41:28.238Z,54.31
2022-10-11T13:43:56.770Z,55.15
2022-10-11T13:46:28.417Z,55.59
2022-10-11T13:49:06.595Z,55.85
2022-10-11T13:51:35.495Z,55.38
2022-10-11T13:54:11.771Z,54.32
2022-10-11T13:56:49.529Z,54.56
2022-10-11T13:59:22.926Z,56.61
2022-10-11T14:01:54.214Z,56.48
2022-10-11T14:04:22.031Z,53.96
2022-10-11T14:07:02.412Z,52.41
2022-10-11T14:09:31.329Z,52.97
2022-10-11T14:12:29.120Z,53.73
2022-10-11T14:14:55.679Z,55.01
2022-10-11T14:17:32.779Z,55.10
2022-10-11T14:20:11.875Z,55.92
2022-10-11T14:22:38.947Z,57.21
2022-10-11T14:25:05.848Z,58.10
2022-10-11T14:27:32.877Z,58.78
2022-10-11T14:30:24.658Z,59.06
2022-10-11T14:32:49.498Z,59.47
2022-10-11T14:35:18.361Z,59.72
2022-10-11T14:37:45.927Z,60.23
2022-10-11T14:40:16.642Z,60.04
2022-10-11T14:42:43.942Z,61.83
2022-10-11T14:45:11.122Z,62.01
2022-10-11T14:47:42.758Z,61.94
2022-10-11T14:50:37.650Z,61.80
2022-10-11T14:53:05.882Z,62.69
2022-10-11T14:55:32.571Z,62.26
2022-10-11T14:57:59.148Z,62.05
2022-10-11T15:00:27.647Z,61.30
2022-10-11T15:02:55.315Z,61.24
2022-10-11T15:05:24.105Z,60.87
2022-10-11T15:07:50.862Z,61.58
2022-10-11T15:10:30.284Z,61.43
2022-10-11T15:12:58.051Z,61.82
2022-10-11T15:15:30.347Z,61.65
2022-10-11T15:17:58.930Z,62.07
2022-10-11T15:20:35.159Z,62.78
2022-10-11T15:23:01.842Z,63.07
2022-10-11T15:25:29.256Z,62.94
2022-10-11T15:27:56.450Z,63.81
2022-10-11T15:30:41.887Z,63.45
2022-10-11T15:33:08.546Z,63.85
2022-10-11T15:35:35.122Z,63.26
2022-10-11T15:38:01.707Z,63.73
2022-10-11T15:40:35.866Z,63.09
2022-10-11T15:43:03.087Z,62.71
2022-10-11T15:45:29.723Z,62.95
2022-10-11T15:47:56.926Z,62.95
2022-10-11T15:50:43.735Z,62.86
2022-10-11T15:53:26.328Z,61.67
2022-10-11T15:55:55.242Z,62.01
2022-10-11T15:58:27.462Z,62.29
2022-10-11T16:00:56.001Z,62.35
2022-10-11T16:03:25.469Z,62.26
2022-10-11T16:05:53.639Z,62.97
2022-10-11T16:08:20.821Z,62.75
2022-10-11T16:10:47.606Z,63.57
2022-10-11T16:13:14.476Z,64.50
2022-10-11T16:15:42.969Z,65.00
2022-10-11T16:18:12.694Z,64.17
2022-10-11T16:20:44.841Z,65.16
2022-10-11T16:23:12.841Z,64.37
2022-10-11T16:25:41.194Z,65.39
2022-10-11T16:28:09.252Z,64.76
2022-10-11T16:30:39.509Z,64.94
2022-10-11T16:33:06.157Z,65.98
2022-10-11T16:35:32.911Z,65.20
2022-10-11T16:38:00.918Z,65.47
2022-10-11T16:40:29.909Z,66.22
2022-10-11T16:42:56.533Z,65.74
2022-10-11T16:45:23.508Z,65.74
2022-10-11T16:47:50.204Z,67.52
2022-10-11T16:50:16.739Z,67.54
2022-10-11T16:52:43.281Z,67.14
2022-10-11T16:55:09.887Z,66.55
2022-10-11T16:57:37.776Z,66.52
2022-10-11T17:00:09.206Z,67.15
2022-10-11T17:02:36.680Z,67.14
2022-10-11T17:05:03.877Z,67.04
2022-10-11T17:07:31.299Z,67.34
2022-10-11T17:09:58.272Z,67.10
2022-10-11T17:12:24.986Z,66.94
2022-10-11T17:14:51.541Z,68.47
2022-10-11T17:17:20.613Z,68.16
2022-10-11T17:19:47.627Z,68.98
2022-10-11T17:22:17.668Z,68.83
2022-10-11T17:24:45.101Z,69.07
2022-10-11T17:27:11.674Z,70.00
2022-10-11T17:29:38.688Z,70.15
2022-10-11T17:32:05.697Z,70.22
2022-10-11T17:34:32.459Z,69.86
2022-10-11T17:36:59.098Z,69.82
2022-10-11T17:39:25.828Z,69.76
2022-10-11T17:41:52.773Z,70.07
2022-10-11T17:44:20.096Z,71.19
2022-10-11T17:46:47.502Z,71.72
2022-10-11T17:49:14.074Z,70.82
2022-10-11T17:51:41.578Z,71.72
2022-10-11T17:54:13.262Z,71.98
2022-10-11T17:56:41.634Z,71.29
2022-10-11T17:59:14.384Z,71.91
2022-10-11T18:01:41.148Z,70.99
2022-10-11T18:04:13.383Z,71.13
2022-10-11T18:06:40.097Z,71.55
2022-10-11T18:09:07.144Z,71.54
2022-10-11T18:11:34.064Z,71.10
2022-10-11T18:14:00.841Z,71.91
2022-10-11T18:16:29.645Z,71.49
2022-10-11T18:18:57.448Z,72.17
2022-10-11T18:21:33.726Z,72.24
2022-10-11T18:24:03.114Z,71.84
2022-10-11T18:26:30.920Z,71.79
2022-10-11T18:28:58.655Z,71.64
2022-10-11T18:31:28.639Z,71.67
2022-10-11T18:33:55.695Z,72.17
2022-10-11T18:36:25.561Z,72.90
2022-10-11T18:38:54.917Z,72.94
2022-10-11T18:41:23.472Z,73.25
2022-10-11T18:43:52.130Z,72.78
2022-10-11T18:46:19.537Z,72.62
2022-10-11T18:48:48.596Z,72.16
2022-10-11T18:51:23.857Z,72.77
2022-10-11T18:53:51.503Z,72.47
2022-10-11T18:56:21.726Z,72.44
2022-10-11T18:58:50.254Z,72.69
2022-10-11T19:01:23.776Z,73.04
2022-10-11T19:03:53.126Z,73.37
2022-10-11T19:06:22.497Z,73.01
2022-10-11T19:08:52.841Z,73.12
2022-10-11T19:11:25.229Z,73.33
2022-10-11T19:13:57.185Z,73.50
2022-10-11T19:16:24.616Z,73.76
2022-10-11T19:18:52.299Z,73.55
2022-10-11T19:21:19.617Z,73.88
2022-10-11T19:23:47.809Z,73.53
2022-10-11T19:26:18.723Z,73.85
2022-10-11T19:28:47.053Z,73.95
2022-10-11T19:31:16.839Z,73.66
2022-10-11T19:33:45.237Z,74.23
2022-10-11T19:36:13.933Z,73.92
2022-10-11T19:38:45.473Z,74.06
2022-10-11T19:41:13.199Z,74.27
2022-10-11T19:43:39.824Z,74.47
2022-10-11T19:46:09.999Z,74.57
2022-10-11T19:48:42.708Z,74.33
2022-10-11T19:51:18.619Z,74.47
2022-10-11T19:53:46.065Z,74.94
2022-10-11T19:56:15.958Z,74.97
2022-10-11T19:58:43.020Z,75.68
2022-10-11T20:01:17.539Z,75.39
2022-10-11T20:03:47.050Z,75.53
2022-10-11T20:06:14.439Z,75.95
2022-10-11T20:08:40.990Z,75.26
2022-10-11T20:11:09.265Z,75.76
2022-10-11T20:13:37.268Z,75.70
2022-10-11T20:16:10.311Z,75.03
2022-10-11T20:18:37.858Z,75.48
2022-10-11T20:21:07.769Z,74.70
2022-10-11T20:23:35.627Z,75.31
2022-10-11T20:26:15.853Z,75.49
2022-10-11T20:28:43.797Z,76.02
2022-10-11T20:31:16.338Z,75.78
2022-10-11T20:33:42.972Z,75.84
2022-10-11T20:36:12.062Z,75.79
2022-10-11T20:38:41.058Z,75.65
2022-10-11T20:41:22.300Z,76.13
2022-10-11T20:43:54.281Z,76.08
2022-10-11T20:46:23.936Z,75.92
2022-10-11T20:48:55.513Z,76.32
2022-10-11T20:51:26.302Z,76.71
2022-10-11T20:53:53.488Z,76.89
2022-10-11T20:56:21.298Z,76.69
2022-10-11T20:58:52.132Z,76.62
2022-10-11T21:01:21.074Z,76.53
2022-10-11T21:03:47.682Z,77.56
2022-10-11T21:06:14.429Z,77.99
2022-10-11T21:08:41.233Z,79.95
2022-10-11T21:11:08.643Z,80.52
2022-10-11T21:13:36.037Z,79.32
2022-10-11T21:16:04.625Z,79.05
2022-10-11T21:18:31.143Z,80.18
2022-10-11T21:20:57.760Z,79.82
2022-10-11T21:23:24.331Z,80.28
2022-10-11T21:25:51.078Z,79.57
2022-10-11T21:28:17.655Z,79.38
2022-10-11T21:30:44.137Z,79.75
2022-10-11T21:33:13.191Z,80.16
2022-10-11T21:35:40.393Z,82.02
2022-10-11T21:38:07.144Z,81.71
2022-10-11T21:40:37.805Z,81.16
2022-10-11T21:43:04.406Z,81.01
2022-10-11T21:45:30.947Z,80.46
2022-10-11T21:47:57.505Z,80.11
2022-10-11T21:50:24.065Z,79.70
2022-10-11T21:52:50.673Z,79.90
2022-10-11T21:55:17.239Z,79.86
2022-10-11T21:57:43.902Z,80.37
2022-10-11T22:00:11.206Z,80.75
2022-10-11T22:02:40.428Z,80.17
2022-10-11T22:05:07.105Z,79.81
2022-10-11T22:07:33.746Z,79.53
2022-10-11T22:10:00.374Z,79.47
2022-10-11T22:12:26.895Z,79.24
2022-10-11T22:14:53.461Z,79.30
2022-10-11T22:17:20.139Z,80.08
2022-10-11T22:19:46.678Z,79.81
2022-10-11T22:22:13.425Z,80.22
2022-10-11T22:24:40.014Z,80.23
2022-10-11T22:27:06.605Z,80.36
2022-10-11T22:29:34.317Z,80.14
2022-10-11T22:32:01.327Z,80.08
2022-10-11T22:34:31.702Z,80.09
2022-10-11T22:36:58.504Z,79.77
2022-10-11T22:39:25.178Z,79.62
2022-10-11T22:41:54.422Z,79.63
2022-10-11T22:44:21.300Z,79.62
2022-10-11T22:46:47.935Z,79.85
2022-10-11T22:49:14.459Z,79.90
2022-10-11T22:51:40.930Z,79.48
2022-10-11T22:54:07.492Z,80.61
2022-10-11T22:56:34.033Z,80.77
2022-10-11T22:59:00.581Z,80.18
2022-10-11T23:01:27.195Z,79.50
2022-10-11T23:03:53.930Z,79.50
2022-10-11T23:06:20.642Z,80.13
2022-10-11T23:08:47.359Z,81.06
2022-10-11T23:11:14.022Z,82.28
2022-10-11T23:13:40.613Z,82.15
2022-10-11T23:16:09.711Z,82.40
2022-10-11T23:18:36.842Z,82.64
2022-10-11T23:21:04.708Z,82.27
2022-10-11T23:23:31.277Z,82.07
2022-10-11T23:26:11.527Z,82.25
2022-10-11T23:28:38.224Z,82.45
2022-10-11T23:31:11.493Z,82.65
2022-10-11T23:33:38.509Z,83.46
2022-10-11T23:36:05.627Z,82.34
2022-10-11T23:38:32.505Z,81.34
2022-10-11T23:40:59.379Z,81.52
2022-10-11T23:43:25.925Z,80.79
2022-10-11T23:45:54.005Z,81.23
2022-10-11T23:48:20.555Z,80.53
2022-10-11T23:50:47.120Z,80.44
2022-10-11T23:53:13.782Z,80.25
2022-10-11T23:55:40.597Z,80.06
2022-10-11T23:58:07.179Z,80.30
